Time;durP1;ratioP1;P1;durP2;ratioP2;P2;SDS_P1;SDS_P2;PMS_P1;PMS_P2;Temp;Humidity;BMP_temperature;BMP_pressure;BME280_temperature;BME280_humidity;BME280_pressure;Samples;Min_cycle;Max_cycle;Signal;HPM_P1;HPM_P2
2023/03/05 00:00:13;;;;;;;7.35;3.92;;;22.00;69.10;;;20.89;42.15;98329.81;5099869;28;20036;-66
2023/03/05 00:02:59;;;;;;;6.05;4.30;;;22.00;69.30;;;20.87;42.43;98325.81;5096233;28;20048;-66
2023/03/05 00:05:25;;;;;;;6.57;4.25;;;22.00;68.80;;;20.89;42.50;98329.00;5102462;28;20062;-66
2023/03/05 00:07:54;;;;;;;5.40;3.92;;;22.00;69.00;;;20.89;42.17;98327.06;5094337;28;20052;-66
2023/03/05 00:10:20;;;;;;;6.47;3.97;;;22.00;68.80;;;20.89;42.18;98327.06;5098091;28;20040;-66
2023/03/05 00:12:46;;;;;;;7.30;4.32;;;22.00;69.60;;;20.89;42.03;98335.34;5099411;28;20085;-66
2023/03/05 00:15:12;;;;;;;5.68;3.97;;;22.00;68.80;;;20.88;41.84;98328.19;5097923;28;20399;-66
2023/03/05 00:17:38;;;;;;;7.20;4.72;;;22.00;68.80;;;20.85;42.08;98328.91;5095204;28;20500;-66
2023/03/05 00:20:05;;;;;;;5.97;3.90;;;22.00;68.80;;;20.88;42.03;98328.19;5098025;28;20379;-66
2023/03/05 00:22:34;;;;;;;11.05;5.03;;;21.90;68.80;;;20.86;42.25;98324.19;5095711;28;20044;-66
2023/03/05 00:25:00;;;;;;;6.15;3.67;;;22.00;68.90;;;20.87;41.89;98332.13;5099213;28;20035;-66
2023/03/05 00:27:26;;;;;;;7.43;3.65;;;22.00;68.80;;;20.85;42.04;98326.16;5098130;28;20040;-66
2023/03/05 00:29:52;;;;;;;7.93;4.28;;;21.90;68.70;;;20.85;41.74;98317.09;5096702;28;20052;-66
2023/03/05 00:32:18;;;;;;;6.32;4.35;;;21.90;68.80;;;20.81;42.06;98316.97;5095028;28;20047;-66
2023/03/05 00:34:44;;;;;;;8.40;4.43;;;21.90;68.80;;;20.85;41.74;98317.88;5100301;28;20047;-66
2023/03/05 00:37:10;;;;;;;7.55;4.53;;;21.90;68.70;;;20.83;42.19;98311.13;5095469;28;20048;-70
2023/03/05 00:39:36;;;;;;;7.93;4.55;;;21.90;68.70;;;20.81;41.76;98309.53;5100337;28;20142;-66
2023/03/05 00:42:03;;;;;;;6.45;3.42;;;21.90;68.80;;;20.83;41.72;98308.38;5099884;28;20408;-67
2023/03/05 00:44:29;;;;;;;7.13;4.00;;;21.90;68.70;;;20.82;41.94;98310.34;5096449;28;20058;-66
2023/03/05 00:46:55;;;;;;;5.85;3.78;;;21.90;68.80;;;20.81;41.72;98306.78;5096965;28;20048;-66
2023/03/05 00:49:22;;;;;;;7.25;3.33;;;21.90;68.70;;;20.82;42.09;98307.56;5097707;28;20052;-66
2023/03/05 00:51:47;;;;;;;5.40;3.35;;;21.90;68.70;;;20.83;42.01;98305.63;5097027;28;20047;-66
2023/03/05 00:54:14;;;;;;;6.00;4.20;;;21.90;68.70;;;20.81;41.93;98293.00;5101740;28;20518;-66
2023/03/05 00:56:39;;;;;;;6.45;4.38;;;21.90;68.70;;;20.81;41.67;98293.00;5097819;28;20050;-66
2023/03/05 00:59:06;;;;;;;7.82;4.30;;;21.90;68.70;;;20.80;41.30;98293.34;5100998;28;20111;-66
2023/03/05 01:01:32;;;;;;;5.88;3.78;;;21.90;68.70;;;20.77;41.94;98289.34;5097416;28;20051;-67
2023/03/05 01:03:59;;;;;;;5.75;3.60;;;21.90;68.70;;;20.79;41.92;98287.03;5095697;28;20764;-67
2023/03/05 01:06:26;;;;;;;6.10;3.95;;;21.90;68.40;;;20.78;41.74;98296.44;5098295;28;20040;-67
2023/03/05 01:08:52;;;;;;;7.63;3.83;;;21.90;68.70;;;20.77;41.50;98292.09;5099064;28;20048;-67
2023/03/05 01:11:18;;;;;;;5.50;3.83;;;21.90;68.70;;;20.76;42.09;98295.19;5097782;28;20051;-67
2023/03/05 01:13:44;;;;;;;7.88;3.63;;;21.90;68.80;;;20.77;41.67;98296.81;5099931;28;20458;-67
2023/03/05 01:16:10;;;;;;;8.50;3.75;;;21.80;68.60;;;20.76;41.59;98296.03;5099100;28;20064;-67
2023/03/05 01:18:37;;;;;;;4.68;3.72;;;21.80;68.20;;;20.75;41.54;98297.16;5100764;28;20066;-67
2023/03/05 01:21:04;;;;;;;8.20;4.57;;;21.80;68.30;;;20.74;41.77;98294.78;5095559;28;20555;-67
2023/03/05 01:23:31;;;;;;;4.22;3.03;;;21.90;68.60;;;20.74;41.38;98292.00;5095730;28;20043;-67
2023/03/05 01:25:57;;;;;;;5.07;3.05;;;21.80;68.00;;;20.73;41.31;98291.19;5097847;28;20528;-67
2023/03/05 01:28:24;;;;;;;5.03;3.20;;;21.90;68.00;;;20.73;41.45;98293.16;5095549;28;20068;-67
2023/03/05 01:30:50;;;;;;;7.90;3.63;;;21.80;67.90;;;20.72;41.17;98291.56;5097854;28;20876;-67
2023/03/05 01:33:17;;;;;;;5.10;3.10;;;21.80;67.90;;;20.72;41.38;98291.56;5097328;28;20080;-67
2023/03/05 01:35:46;;;;;;;6.00;3.53;;;21.80;68.20;;;20.73;41.33;98293.16;5094757;28;20036;-67
2023/03/05 01:38:13;;;;;;;6.93;3.47;;;21.80;67.90;;;20.71;41.60;98298.22;5098721;28;20043;-67
2023/03/05 01:40:39;;;;;;;6.25;3.38;;;21.80;68.30;;;20.72;41.66;98291.56;5095406;28;20051;-67
2023/03/05 01:43:11;;;;;;;7.10;4.18;;;21.80;68.10;;;20.74;41.31;98287.28;5095941;28;20075;-67
2023/03/05 01:45:38;;;;;;;7.25;3.53;;;21.80;68.10;;;20.71;41.08;98290.75;5092088;28;20055;-67
2023/03/05 01:48:04;;;;;;;4.50;3.03;;;21.80;67.90;;;20.72;41.68;98292.34;5097354;28;20129;-67
2023/03/05 01:50:30;;;;;;;5.22;3.15;;;21.80;67.90;;;20.72;41.29;98294.31;5093615;28;20048;-67
2023/03/05 01:53:02;;;;;;;4.30;3.33;;;21.80;68.00;;;20.70;41.46;98293.88;5077239;28;20059;-66
2023/03/05 01:55:29;;;;;;;5.82;4.10;;;21.80;68.30;;;20.71;41.34;98289.94;5096386;28;20235;-66
2023/03/05 01:58:08;;;;;;;6.53;3.85;;;21.80;67.90;;;20.69;41.01;98284.81;5080087;28;20088;-66
2023/03/05 02:00:38;;;;;;;5.80;4.13;;;21.80;68.00;;;20.70;40.83;98291.91;5086256;28;20376;-66
2023/03/05 02:03:08;;;;;;;6.53;4.00;;;21.80;67.70;;;20.70;41.03;98288.34;5063275;28;20043;-66
2023/03/05 02:05:36;;;;;;;5.78;3.47;;;21.80;67.60;;;20.69;40.79;98292.28;5080682;28;20048;-66
2023/03/05 02:08:08;;;;;;;4.38;3.17;;;21.80;67.60;;;20.67;40.90;98289.06;5100169;28;20056;-66
2023/03/05 02:10:40;;;;;;;11.93;3.88;;;21.80;67.30;;;20.68;40.90;98282.38;5096098;28;20101;-67
2023/03/05 02:13:08;;;;;;;4.82;3.13;;;21.80;67.40;;;20.68;41.15;98288.69;5074876;28;20043;-67
2023/03/05 02:15:35;;;;;;;6.10;3.85;;;21.80;67.80;;;20.66;41.09;98290.19;5069467;28;20071;-67
2023/03/05 02:18:01;;;;;;;5.53;3.90;;;21.70;67.20;;;20.64;41.12;98284.25;5100530;28;20044;-67
2023/03/05 02:20:30;;;;;;;6.43;3.28;;;21.70;67.20;;;20.64;40.67;98282.31;5104598;28;20475;-67
2023/03/05 02:22:56;;;;;;;4.75;3.50;;;21.70;67.10;;;20.64;41.05;98276.78;5100803;28;20040;-67
2023/03/05 02:25:26;;;;;;;5.55;3.42;;;21.70;67.20;;;20.63;40.81;98277.94;5099731;28;20040;-67
2023/03/05 02:28:13;;;;;;;5.15;3.35;;;21.70;67.00;;;20.64;40.78;98264.97;5100818;28;20043;-67
2023/03/05 02:30:39;;;;;;;3.75;2.88;;;21.70;67.00;;;20.64;40.63;98267.72;5100987;28;20039;-67
2023/03/05 02:33:05;;;;;;;4.50;3.03;;;21.70;66.90;;;20.65;40.36;98272.06;5102532;28;20064;-67
2023/03/05 02:35:34;;;;;;;6.15;3.17;;;21.70;66.90;;;20.64;40.64;98276.00;5103055;28;20051;-67
2023/03/05 02:38:00;;;;;;;11.40;3.50;;;21.70;66.80;;;20.67;40.36;98265.06;5100991;28;20046;-67
2023/03/05 02:40:26;;;;;;;4.90;2.92;;;21.70;66.70;;;20.67;40.62;98265.06;5099740;28;20040;-66
2023/03/05 02:42:53;;;;;;;6.88;3.28;;;21.70;66.80;;;20.63;40.12;98260.59;5100450;28;20055;-66
2023/03/05 02:45:19;;;;;;;6.05;3.25;;;21.70;66.50;;;20.64;40.51;98259.47;5097657;28;20487;-66
2023/03/05 02:47:45;;;;;;;4.10;2.80;;;21.70;66.30;;;20.64;40.62;98256.72;5098361;28;20036;-66
2023/03/05 02:50:11;;;;;;;2.78;2.45;;;21.70;66.50;;;20.63;40.60;98255.88;5100899;28;20058;-66
2023/03/05 02:52:37;;;;;;;6.05;2.75;;;21.70;66.50;;;20.63;40.21;98253.13;5099763;28;20325;-67
2023/03/05 02:55:04;;;;;;;5.38;3.22;;;21.70;66.10;;;20.61;40.06;98255.47;5099756;28;20143;-67
2023/03/05 02:57:30;;;;;;;3.85;3.00;;;21.70;66.40;;;20.63;40.07;98249.56;5100749;28;20500;-67
2023/03/05 02:59:56;;;;;;;6.30;3.85;;;21.70;66.20;;;20.63;40.07;98250.38;5098769;28;20050;-67
2023/03/05 03:02:22;;;;;;;6.20;2.90;;;21.70;66.20;;;20.61;39.95;98258.22;5098784;28;20047;-67
2023/03/05 03:04:48;;;;;;;3.92;3.00;;;21.70;66.20;;;20.60;40.12;98249.13;5101276;28;20100;-67
2023/03/05 03:07:15;;;;;;;3.72;2.50;;;21.70;66.30;;;20.60;39.84;98251.09;5096276;28;20044;-67
2023/03/05 03:09:42;;;;;;;5.30;3.53;;;21.70;66.00;;;20.67;40.68;98258.75;5100267;28;20044;-66
2023/03/05 03:12:08;;;;;;;4.75;3.10;;;21.70;67.10;;;20.70;40.61;98253.31;5096359;28;20055;-66
2023/03/05 03:14:39;;;;;;;6.97;2.95;;;21.70;67.30;;;20.67;40.54;98251.28;5104071;28;20048;-66
2023/03/05 03:17:11;;;;;;;5.95;3.75;;;21.70;66.80;;;20.64;40.45;98252.00;5094518;28;20497;-66
2023/03/05 03:19:37;;;;;;;9.25;3.00;;;21.70;66.70;;;20.63;40.65;98246.81;5100610;28;20147;-66
2023/03/05 03:22:03;;;;;;;5.95;2.55;;;21.70;66.70;;;20.62;40.32;98250.75;5100510;28;20482;-66
2023/03/05 03:24:32;;;;;;;5.85;2.53;;;21.70;66.60;;;20.59;40.32;98244.78;5102335;28;20061;-71
2023/03/05 03:26:59;;;;;;;6.40;3.03;;;21.70;66.50;;;20.59;40.39;98247.53;5099745;28;20039;-66
2023/03/05 03:29:25;;;;;;;5.95;2.80;;;21.70;66.40;;;20.59;40.08;98247.53;5100415;28;20044;-66
2023/03/05 03:31:51;;;;;;;3.35;2.58;;;21.70;66.00;;;20.60;39.92;98242.81;5095536;28;20040;-66
2023/03/05 03:34:17;;;;;;;5.90;2.33;;;21.70;66.10;;;20.60;40.07;98240.84;5100841;28;20488;-66
2023/03/05 03:36:44;;;;;;;11.18;3.42;;;21.70;65.90;;;20.62;39.99;98250.75;5096278;28;20047;-66
2023/03/05 03:39:13;;;;;;;4.82;2.70;;;21.80;66.00;;;20.61;39.91;98241.69;5100521;28;20082;-66
2023/03/05 03:41:41;;;;;;;4.30;2.70;;;21.80;65.80;;;20.62;39.88;98248.78;5097346;28;20051;-66
2023/03/05 03:44:09;;;;;;;4.95;3.13;;;21.90;65.80;;;20.68;39.99;98238.28;5097831;28;20056;-66
2023/03/05 03:46:36;;;;;;;12.65;2.78;;;21.90;65.60;;;20.68;40.06;98239.09;5096998;28;20089;-66
2023/03/05 03:49:03;;;;;;;3.78;2.45;;;21.90;65.50;;;20.68;39.92;98236.34;5098914;28;20039;-66
2023/03/05 03:51:29;;;;;;;4.45;2.33;;;22.00;65.40;;;20.72;39.82;98234.47;5097077;28;20047;-66
2023/03/05 03:53:55;;;;;;;4.07;2.97;;;22.00;65.20;;;20.75;39.45;98235.72;5095294;28;20523;-66
2023/03/05 03:56:21;;;;;;;3.03;2.53;;;22.10;65.10;;;20.75;39.68;98236.53;5100351;27;20048;-66
2023/03/05 03:58:50;;;;;;;3.40;2.42;;;22.10;64.90;;;20.78;39.65;98221.22;5097393;28;20040;-66
2023/03/05 04:01:18;;;;;;;3.83;2.80;;;22.20;65.10;;;20.81;39.47;98221.34;5099434;28;20043;-66
2023/03/05 04:03:44;;;;;;;6.25;3.05;;;22.20;64.90;;;20.84;39.59;98221.75;5098851;28;20059;-67
2023/03/05 04:06:10;;;;;;;4.25;2.83;;;22.30;64.80;;;20.85;39.49;98212.34;5099269;28;20104;-66
2023/03/05 04:08:36;;;;;;;4.50;2.78;;;22.30;65.00;;;20.89;39.41;98215.97;5094142;28;20048;-66
2023/03/05 04:11:03;;;;;;;4.10;3.05;;;22.40;64.90;;;20.91;39.47;98216.44;5101273;28;20040;-66
2023/03/05 04:13:29;;;;;;;4.88;3.03;;;22.40;64.80;;;20.94;39.49;98216.53;5097240;28;20043;-66
2023/03/05 04:15:55;;;;;;;4.25;2.70;;;22.50;64.80;;;20.97;39.74;98220.53;5096399;28;20115;-66
2023/03/05 04:18:21;;;;;;;3.28;2.25;;;22.50;64.60;;;20.97;39.65;98209.50;5094329;28;20056;-66
2023/03/05 04:20:48;;;;;;;5.82;2.60;;;22.60;64.80;;;20.97;39.54;98212.25;5097493;28;20043;-66
2023/03/05 04:23:14;;;;;;;3.78;2.40;;;22.60;64.70;;;21.03;39.58;98211.63;5096352;28;20044;-67
2023/03/05 04:25:40;;;;;;;3.97;2.45;;;22.70;64.70;;;21.06;39.57;98217.56;5101256;28;20395;-67
2023/03/05 04:28:06;;;;;;;4.38;3.05;;;22.70;64.60;;;21.07;39.50;98203.44;5101311;28;20046;-67
2023/03/05 04:30:32;;;;;;;3.58;2.60;;;22.80;64.60;;;21.13;39.74;98203.97;5098110;28;20524;-66
2023/03/05 04:32:58;;;;;;;4.43;2.92;;;22.80;64.60;;;21.15;39.48;98204.41;5100126;28;20040;-66
2023/03/05 04:35:24;;;;;;;4.43;3.00;;;22.80;64.60;;;21.14;39.78;98203.63;5095089;28;20055;-66
2023/03/05 04:37:50;;;;;;;3.63;2.58;;;22.90;64.50;;;21.15;39.86;98209.94;5097286;28;20058;-66
2023/03/05 04:40:16;;;;;;;6.43;2.33;;;22.90;64.50;;;21.15;39.72;98193.38;5102988;28;20062;-66
2023/03/05 04:42:43;;;;;;;5.40;2.72;;;23.00;64.70;;;21.12;39.82;98194.91;5096661;28;20081;-66
2023/03/05 04:45:10;;;;;;;3.95;2.28;;;23.00;64.60;;;21.19;39.86;98188.72;5096085;28;20040;-67
2023/03/05 04:47:36;;;;;;;5.43;2.63;;;23.00;64.60;;;21.18;39.90;98187.94;5098145;28;20463;-67
2023/03/05 04:50:04;;;;;;;4.50;2.85;;;23.10;64.60;;;21.21;39.82;98181.69;5095984;28;20051;-66
2023/03/05 04:52:29;;;;;;;3.78;2.72;;;23.10;64.60;;;21.20;39.67;98188.38;5097965;28;20040;-66
2023/03/05 04:54:56;;;;;;;3.72;2.53;;;23.10;64.50;;;21.28;39.92;98188.56;5098444;28;20043;-66
2023/03/05 04:57:22;;;;;;;5.15;2.50;;;23.20;64.70;;;21.31;39.65;98190.59;5102256;28;20500;-66
2023/03/05 04:59:48;;;;;;;3.88;2.53;;;23.10;64.50;;;21.32;39.65;98184.72;5095650;28;20048;-66
2023/03/05 05:02:14;;;;;;;2.67;2.22;;;23.20;64.70;;;21.28;40.05;98170.03;5101466;28;20054;-66
2023/03/05 05:04:43;;;;;;;3.22;2.38;;;23.20;64.60;;;21.30;39.88;98177.97;5097672;28;20070;-66
2023/03/05 05:07:11;;;;;;;5.00;3.05;;;23.30;64.60;;;21.37;39.76;98178.91;5099569;28;20047;-66
2023/03/05 05:09:37;;;;;;;5.47;2.97;;;23.30;64.50;;;21.35;39.82;98177.69;5099802;28;20109;-66
2023/03/05 05:12:04;;;;;;;4.35;2.47;;;23.30;64.50;;;21.39;39.83;98175.81;5079612;28;20052;-67
2023/03/05 05:14:30;;;;;;;4.53;2.80;;;23.40;64.50;;;21.39;40.03;98176.59;5095295;28;20054;-67
2023/03/05 05:16:56;;;;;;;5.47;2.80;;;23.40;64.20;;;21.40;39.79;98169.16;5101769;28;20039;-66
2023/03/05 05:19:22;;;;;;;8.63;2.55;;;23.40;64.20;;;21.46;39.77;98165.72;5094032;28;20067;-67
2023/03/05 05:21:48;;;;;;;5.00;2.33;;;23.40;64.10;;;21.47;39.76;98163.75;5097339;28;20044;-66
2023/03/05 05:24:14;;;;;;;11.43;2.92;;;23.50;64.30;;;21.51;39.75;98161.09;5098871;28;20064;-66
2023/03/05 05:26:40;;;;;;;5.70;2.55;;;23.60;64.40;;;21.49;39.97;98169.72;5095780;28;20070;-66
2023/03/05 05:29:06;;;;;;;3.78;2.47;;;23.60;64.40;;;21.51;39.85;98166.63;5097568;28;20467;-66
2023/03/05 05:31:32;;;;;;;5.00;2.53;;;23.60;64.40;;;21.53;40.09;98164.31;5097784;28;20054;-66
2023/03/05 05:33:58;;;;;;;2.35;2.00;;;23.60;64.40;;;21.62;40.04;98167.63;5095737;28;20143;-66
2023/03/05 05:36:24;;;;;;;9.85;3.95;;;23.70;64.50;;;21.62;39.77;98167.63;5094971;28;20050;-66
2023/03/05 05:38:51;;;;;;;5.45;3.03;;;23.70;64.50;;;21.65;39.94;98166.91;5095801;28;20134;-66
2023/03/05 05:41:17;;;;;;;5.85;2.67;;;23.70;64.50;;;21.67;40.24;98172.88;5095440;28;20048;-66
2023/03/05 05:43:43;;;;;;;6.85;2.47;;;23.80;64.60;;;21.78;40.52;98179.44;5093022;28;20459;-66
2023/03/05 05:46:15;;;;;;;4.00;2.33;;;23.90;65.40;;;21.79;40.75;98182.97;5095269;28;20639;-66
2023/03/05 05:48:41;;;;;;;2.92;2.10;;;23.90;65.60;;;21.79;40.67;98182.97;5095939;28;20044;-66
2023/03/05 05:51:17;;;;;;;5.85;2.85;;;23.90;65.50;;;21.81;40.72;98198.00;5094742;28;20058;-66
2023/03/05 05:53:43;;;;;;;3.55;2.42;;;24.00;65.40;;;21.81;40.57;98203.53;5094117;28;20035;-66
2023/03/05 05:56:09;;;;;;;23.30;3.25;;;24.10;65.30;;;21.83;40.44;98195.69;5094862;28;20058;-67
2023/03/05 05:58:36;;;;;;;5.60;3.05;;;24.10;65.00;;;21.83;40.59;98194.88;5099879;28;20509;-67
2023/03/05 06:01:10;;;;;;;3.35;2.53;;;24.10;65.00;;;21.91;40.41;98206.91;5092634;28;20048;-67
2023/03/05 06:03:39;;;;;;;3.90;2.42;;;24.20;65.00;;;21.92;40.31;98208.47;5095794;28;20057;-67
2023/03/05 06:06:13;;;;;;;6.80;3.63;;;24.20;64.80;;;21.89;40.47;98204.47;5098019;28;20036;-67
2023/03/05 06:08:39;;;;;;;6.03;2.92;;;24.20;64.80;;;21.97;40.35;98199.91;5100718;28;20118;-67
2023/03/05 06:11:05;;;;;;;16.83;3.35;;;24.30;65.10;;;21.94;40.28;98208.91;5094718;28;20055;-67
2023/03/05 06:13:32;;;;;;;10.25;2.60;;;24.30;64.70;;;21.93;40.25;98194.31;5098414;28;20567;-67
2023/03/05 06:16:00;;;;;;;5.22;2.72;;;24.30;64.60;;;21.95;40.18;98200.25;5095323;28;20368;-67
2023/03/05 06:18:26;;;;;;;4.25;2.30;;;24.30;64.60;;;22.01;39.88;98189.75;5100675;28;20040;-66
2023/03/05 06:20:58;;;;;;;3.42;2.33;;;24.30;64.50;;;21.98;39.91;98194.03;5094952;28;20043;-66
2023/03/05 06:23:25;;;;;;;4.45;2.15;;;24.30;64.40;;;21.99;39.80;98183.78;5098919;28;20394;-66
2023/03/05 06:25:54;;;;;;;5.38;2.97;;;24.30;64.30;;;21.94;39.93;98184.06;5096260;28;20048;-68
2023/03/05 06:28:20;;;;;;;6.22;2.58;;;24.30;64.20;;;22.06;39.76;98186.69;5095242;28;20823;-66
2023/03/05 06:30:46;;;;;;;4.47;3.13;;;24.20;64.50;;;22.02;39.92;98181.06;5090909;28;20075;-66
2023/03/05 06:33:12;;;;;;;4.53;2.10;;;24.20;64.50;;;22.02;39.96;98183.03;5096953;28;20040;-66
2023/03/05 06:35:39;;;;;;;4.97;2.58;;;24.20;64.50;;;22.01;39.78;98178.69;5097911;28;20054;-66
2023/03/05 06:38:06;;;;;;;9.23;1.88;;;24.20;64.50;;;22.02;39.88;98181.06;5096848;28;20040;-68
2023/03/05 06:40:32;;;;;;;6.50;3.30;;;24.20;64.50;;;22.04;39.69;98175.19;5095940;28;20384;-67
2023/03/05 06:42:59;;;;;;;5.40;2.40;;;24.10;64.20;;;21.96;39.71;98177.03;5097928;28;20044;-66
2023/03/05 06:45:25;;;;;;;7.35;3.72;;;24.10;64.00;;;22.01;39.14;98173.16;5096123;28;20050;-66
2023/03/05 06:47:51;;;;;;;4.57;3.05;;;24.10;63.80;;;21.95;39.08;98169.88;5094481;28;20040;-66
2023/03/05 06:50:17;;;;;;;6.82;2.83;;;24.10;63.40;;;21.90;38.80;98170.19;5095713;28;20044;-66
2023/03/05 06:52:43;;;;;;;3.97;2.95;;;24.10;63.10;;;21.84;39.02;98163.38;5090557;28;20059;-66
2023/03/05 06:55:10;;;;;;;10.23;3.45;;;24.10;62.90;;;21.82;38.50;98166.47;5098135;28;20055;-66
2023/03/05 06:57:36;;;;;;;7.28;3.17;;;24.00;62.50;;;21.84;38.21;98166.91;5096723;28;20047;-66
2023/03/05 07:00:08;;;;;;;6.40;2.28;;;24.00;62.10;;;21.87;38.02;98168.94;5099181;28;20282;-67
2023/03/05 07:02:36;;;;;;;8.73;3.22;;;24.00;62.00;;;21.84;37.93;98163.38;5097624;28;20414;-66
2023/03/05 07:05:03;;;;;;;5.40;3.28;;;23.90;61.60;;;21.88;37.74;98165.03;5097028;28;20040;-66
2023/03/05 07:07:29;;;;;;;7.20;3.17;;;23.90;61.40;;;21.91;37.88;98169.03;5098024;28;20084;-66
2023/03/05 07:09:55;;;;;;;4.28;2.95;;;23.90;61.60;;;21.92;37.76;98170.63;5094198;28;20044;-66
2023/03/05 07:12:21;;;;;;;4.40;2.67;;;23.90;61.60;;;21.88;37.87;98165.03;5098203;28;20044;-67
2023/03/05 07:14:47;;;;;;;4.63;3.13;;;23.90;61.60;;;21.84;37.80;98161.41;5097039;28;20040;-66
2023/03/05 07:17:15;;;;;;;4.28;3.45;;;23.90;61.60;;;21.81;37.88;98164.09;5099509;28;20052;-66
2023/03/05 07:19:41;;;;;;;8.55;3.33;;;23.90;61.60;;;21.80;37.92;98157.75;5097459;28;20047;-66
2023/03/05 07:22:07;;;;;;;4.88;2.40;;;23.90;61.70;;;21.82;37.87;98160.94;5098283;28;20056;-66
2023/03/05 07:24:34;;;;;;;7.80;2.85;;;23.90;61.70;;;21.85;37.64;98160.25;5095192;28;20540;-66
2023/03/05 07:27:00;;;;;;;8.93;3.17;;;23.90;61.70;;;21.85;37.77;98157.50;5099287;28;20066;-66
2023/03/05 07:29:26;;;;;;;4.93;2.67;;;23.90;61.80;;;21.84;38.05;98152.31;5099417;28;20499;-66
2023/03/05 07:31:53;;;;;;;6.07;3.03;;;23.80;61.70;;;21.82;37.98;98149.91;5098018;28;20402;-66
2023/03/05 07:34:19;;;;;;;6.40;3.38;;;23.80;61.80;;;21.79;38.01;98150.66;5100046;28;20047;-66
2023/03/05 07:36:45;;;;;;;7.90;2.78;;;23.80;61.80;;;21.83;38.05;98151.53;5094363;28;20134;-66
2023/03/05 07:39:11;;;;;;;7.38;2.75;;;23.80;62.00;;;21.82;37.90;98154.63;5097960;28;20554;-66
2023/03/05 07:41:38;;;;;;;4.30;2.60;;;23.80;62.00;;;21.76;37.96;98154.13;5097431;28;20052;-66
2023/03/05 07:44:04;;;;;;;8.43;3.28;;;23.80;62.00;;;21.76;38.13;98145.06;5095019;28;20129;-66
2023/03/05 07:46:32;;;;;;;3.55;2.63;;;23.80;62.00;;;21.76;38.23;98140.34;5095315;28;20056;-66
2023/03/05 07:48:58;;;;;;;5.32;2.95;;;23.80;62.20;;;21.84;38.03;98139.31;5097460;28;20052;-66
2023/03/05 07:51:28;;;;;;;4.70;3.03;;;23.80;62.30;;;21.93;38.07;98141.88;5096380;28;20119;-65
2023/03/05 07:53:56;;;;;;;7.53;2.42;;;23.80;62.60;;;21.85;38.30;98138.16;5097441;28;20079;-65
2023/03/05 07:56:30;;;;;;;6.82;2.35;;;23.70;62.40;;;21.86;38.43;98138.97;5099547;28;20071;-65
2023/03/05 07:58:57;;;;;;;5.80;2.40;;;23.70;62.60;;;21.84;38.42;98130.22;5094855;28;20475;-65
2023/03/05 08:01:23;;;;;;;8.88;2.83;;;23.70;62.70;;;21.91;38.33;98124.84;5096683;28;20040;-66
2023/03/05 08:03:49;;;;;;;22.33;2.72;;;23.70;63.10;;;22.04;38.75;98126.28;5099034;28;20047;-68
2023/03/05 08:06:16;;;;;;;4.82;2.60;;;23.70;63.50;;;22.04;38.75;98122.72;5096966;28;20048;-66
2023/03/05 08:08:41;;;;;;;17.05;4.07;;;23.70;63.60;;;22.01;38.83;98123.47;5096540;28;20044;-65
2023/03/05 08:11:10;;;;;;;10.80;3.10;;;23.70;63.90;;;21.92;39.03;98125.66;5098833;28;20054;-65
2023/03/05 08:13:36;;;;;;;9.93;3.78;;;23.70;63.90;;;21.87;38.98;98108.19;5098066;28;20036;-66
2023/03/05 08:16:05;;;;;;;7.28;3.20;;;23.70;63.80;;;21.88;38.94;98123.63;5095919;28;20076;-67
2023/03/05 08:18:31;;;;;;;6.53;3.38;;;23.70;63.60;;;21.85;39.05;98116.06;5099067;28;20551;-67
2023/03/05 08:20:58;;;;;;;16.92;4.18;;;23.70;63.70;;;21.82;39.04;98110.47;5096589;28;20092;-67
2023/03/05 08:23:24;;;;;;;6.65;2.90;;;23.70;63.70;;;21.82;38.91;98111.25;5100878;28;20086;-67
2023/03/05 08:25:50;;;;;;;8.55;3.00;;;23.60;63.60;;;21.81;39.04;98115.19;5099200;28;20554;-67
2023/03/05 08:28:18;;;;;;;9.98;3.75;;;23.60;63.50;;;21.84;38.79;98124.72;5101955;28;20138;-67
2023/03/05 08:30:46;;;;;;;9.65;2.72;;;23.60;63.60;;;21.80;38.85;98116.34;5102648;28;20209;-67
2023/03/05 08:33:16;;;;;;;9.85;3.80;;;23.60;63.60;;;21.81;39.10;98112.44;5100675;28;20125;-67
2023/03/05 08:35:43;;;;;;;8.43;3.05;;;23.60;63.80;;;21.81;38.78;98115.19;5094701;28;20044;-67
2023/03/05 08:38:09;;;;;;;8.27;3.15;;;23.60;63.70;;;21.78;38.73;98115.94;5099129;28;20047;-67
2023/03/05 08:40:38;;;;;;;5.82;2.85;;;23.60;63.60;;;21.78;38.93;98113.19;5103434;28;20051;-67
2023/03/05 08:43:06;;;;;;;8.05;2.78;;;23.60;63.60;;;21.77;38.91;98116.28;5084831;28;20039;-66
2023/03/05 08:45:32;;;;;;;4.18;2.85;;;23.50;63.50;;;21.75;39.01;98115.84;5104053;28;20050;-66
2023/03/05 08:47:58;;;;;;;10.40;2.97;;;23.50;63.50;;;21.79;38.89;98109.25;5100478;28;20043;-65
2023/03/05 08:50:24;;;;;;;8.13;2.50;;;23.50;63.70;;;21.78;38.84;98104.06;5103638;28;20054;-66
2023/03/05 08:52:50;;;;;;;6.90;3.13;;;23.40;63.70;;;21.78;38.81;98109.59;5102040;28;20155;-66
2023/03/05 08:55:17;;;;;;;8.98;2.72;;;23.40;63.80;;;21.78;38.71;98110.41;5104460;28;20050;-65
2023/03/05 08:57:43;;;;;;;12.57;2.33;;;23.40;63.90;;;21.77;38.86;98106.03;5103914;28;20047;-66
2023/03/05 09:00:11;;;;;;;6.07;2.75;;;23.40;64.00;;;21.78;38.98;98101.31;5097449;28;20051;-66
2023/03/05 09:02:37;;;;;;;8.70;2.80;;;23.40;64.10;;;21.75;39.18;98093.75;5103000;28;20047;-66
2023/03/05 09:05:04;;;;;;;11.07;3.28;;;23.40;64.10;;;21.74;38.75;98098.50;5103618;28;20054;-66
2023/03/05 09:07:30;;;;;;;5.30;3.28;;;23.40;63.90;;;21.73;38.80;98085.88;5105812;28;20081;-65
2023/03/05 09:09:56;;;;;;;9.52;3.40;;;23.40;63.60;;;21.72;38.67;98084.25;5103812;28;20077;-65
2023/03/05 09:12:23;;;;;;;10.25;4.13;;;23.40;63.50;;;21.71;38.36;98084.63;5105313;28;20092;-65
2023/03/05 09:14:49;;;;;;;5.68;3.60;;;23.30;63.10;;;21.74;38.21;98081.13;5097681;28;20048;-65
2023/03/05 09:17:15;;;;;;;4.93;3.22;;;23.30;62.90;;;21.69;37.90;98079.47;5096298;28;20050;-65
2023/03/05 09:19:42;;;;;;;6.50;3.60;;;23.30;62.60;;;21.69;37.80;98073.94;5102264;28;20054;-65
2023/03/05 09:22:08;;;;;;;10.82;3.47;;;23.30;62.50;;;21.68;37.53;98069.59;5097679;28;20043;-65
2023/03/05 09:24:35;;;;;;;6.18;3.35;;;23.30;62.20;;;21.67;37.58;98068.00;5099173;28;20048;-65
2023/03/05 09:27:01;;;;;;;4.57;3.05;;;23.30;62.10;;;21.63;37.64;98069.91;5100475;28;20202;-65
2023/03/05 09:29:29;;;;;;;11.68;3.35;;;23.20;61.90;;;21.65;37.38;98059.25;5099627;28;20036;-65
2023/03/05 09:31:55;;;;;;;8.35;4.22;;;23.30;62.00;;;21.67;37.08;98066.03;5102227;28;20628;-67
2023/03/05 09:34:22;;;;;;;6.25;3.63;;;23.20;61.50;;;21.65;37.27;98068.38;5099200;28;20479;-68
2023/03/05 09:36:48;;;;;;;15.65;5.13;;;23.20;61.60;;;21.66;36.88;98064.44;5099764;28;20043;-69
2023/03/05 09:39:15;;;;;;;8.13;4.13;;;23.20;61.20;;;21.65;36.82;98060.09;5094020;28;20416;-67
2023/03/05 09:42:22;;;;;;;6.93;3.03;;;23.20;61.10;;;21.64;36.73;98057.69;5094448;28;20083;-67
2023/03/05 09:45:12;;;;;;;6.35;4.25;;;23.20;61.00;;;21.65;36.69;98051.81;5096313;28;20044;-67
2023/03/05 09:48:19;;;;;;;5.57;3.40;;;23.20;60.70;;;21.71;36.80;98041.25;5100849;28;20407;-68
2023/03/05 09:51:01;;;;;;;9.05;3.55;;;23.20;61.00;;;21.64;36.55;98049.41;5022940;28;20181;-68
2023/03/05 09:53:34;;;;;;;11.65;3.30;;;23.20;60.60;;;21.61;36.30;98050.94;5095542;28;20487;-68
2023/03/05 09:56:13;;;;;;;5.53;3.83;;;23.20;60.30;;;21.62;36.53;98043.44;5102861;28;20042;-68
2023/03/05 09:58:47;;;;;;;6.18;4.72;;;23.20;60.20;;;21.59;36.37;98042.22;5095730;28;20048;-68
2023/03/05 10:01:28;;;;;;;7.45;3.97;;;23.20;60.00;;;21.60;36.04;98040.25;5068450;28;20106;-68
2023/03/05 10:04:26;;;;;;;8.48;4.68;;;23.20;59.80;;;21.59;35.84;98041.41;5100922;28;20051;-68
2023/03/05 10:07:29;;;;;;;4.43;4.03;;;23.10;59.60;;;21.59;35.62;98039.47;5091296;28;20040;-68
2023/03/05 10:10:35;;;;;;;10.75;4.40;;;23.10;59.40;;;21.61;35.57;98036.34;5099462;28;20048;-68
2023/03/05 10:13:09;;;;;;;8.45;4.30;;;23.10;59.30;;;21.57;35.54;98033.50;5071220;28;20048;-68
2023/03/05 10:16:05;;;;;;;10.32;4.13;;;23.10;59.10;;;21.58;35.26;98018.56;5079374;28;20457;-68
2023/03/05 10:18:42;;;;;;;5.95;4.13;;;23.10;59.10;;;21.57;35.32;98016.94;5096663;28;20050;-68
2023/03/05 10:21:29;;;;;;;4.80;3.47;;;23.10;59.00;;;21.60;35.21;98020.94;5078623;28;20048;-68